Time;durP1;ratioP1;P1;durP2;ratioP2;P2;SDS_P1;SDS_P2;PMS_P1;PMS_P2;Temp;Humidity;BMP_temperature;BMP_pressure;BME280_temperature;BME280_humidity;BME280_pressure;Samples;Min_cycle;Max_cycle;Signal;HPM_P1;HPM_P2
2023/04/14 00:00:23;;;;;;;10.45;6.85;;;11.70;90.30;;;;;;5012159;28;20501;-72
2023/04/14 00:02:49;;;;;;;10.55;7.28;;;11.70;90.30;;;;;;5013240;28;20068;-73
2023/04/14 00:05:15;;;;;;;9.38;7.03;;;11.70;90.30;;;;;;5012957;28;20037;-73
2023/04/14 00:07:40;;;;;;;10.00;6.63;;;11.60;90.20;;;;;;5012806;28;20030;-73
2023/04/14 00:10:06;;;;;;;9.05;6.88;;;11.70;90.30;;;;;;5022387;28;20637;-73
2023/04/14 00:12:32;;;;;;;9.35;6.10;;;11.70;90.30;;;;;;5013894;28;20513;-73
2023/04/14 00:14:57;;;;;;;11.13;6.03;;;11.70;90.30;;;;;;5013225;28;20489;-73
2023/04/14 00:17:23;;;;;;;10.60;6.20;;;11.80;90.30;;;;;;5018241;28;20041;-73
2023/04/14 00:19:49;;;;;;;13.05;5.80;;;11.80;90.20;;;;;;5012637;28;20033;-73
2023/04/14 00:22:15;;;;;;;9.55;6.55;;;11.80;90.30;;;;;;5014720;28;20378;-73
2023/04/14 00:24:42;;;;;;;8.43;5.15;;;11.80;90.30;;;;;;5027951;28;20021;-73
2023/04/14 00:27:09;;;;;;;9.25;5.35;;;11.80;90.40;;;;;;5016502;28;20034;-73
2023/04/14 00:29:35;;;;;;;8.43;5.60;;;11.90;90.40;;;;;;5012795;28;20493;-73
2023/04/14 00:32:00;;;;;;;7.70;4.25;;;11.90;90.40;;;;;;5019289;28;20040;-73
2023/04/14 00:34:26;;;;;;;6.25;5.18;;;11.90;90.30;;;;;;5013492;28;20203;-73
2023/04/14 00:36:52;;;;;;;6.72;4.88;;;11.90;90.40;;;;;;5025828;28;20041;-73
2023/04/14 00:39:17;;;;;;;9.25;5.50;;;11.90;90.40;;;;;;5031051;28;20120;-73
2023/04/14 00:41:44;;;;;;;7.75;4.97;;;11.90;90.40;;;;;;5012102;28;20030;-73
2023/04/14 00:44:09;;;;;;;6.90;4.60;;;11.90;90.30;;;;;;5019857;28;20025;-73
2023/04/14 00:46:36;;;;;;;7.15;4.45;;;11.90;90.30;;;;;;5013184;28;20080;-73
2023/04/14 00:49:02;;;;;;;6.57;4.60;;;11.80;90.30;;;;;;5012120;28;20065;-73
2023/04/14 00:51:28;;;;;;;8.60;5.25;;;11.90;90.30;;;;;;5027044;28;20032;-73
2023/04/14 00:53:55;;;;;;;7.88;5.05;;;11.80;90.30;;;;;;5017150;28;20033;-73
2023/04/14 00:56:21;;;;;;;7.03;4.22;;;11.80;90.30;;;;;;5011527;28;20030;-73
2023/04/14 00:58:47;;;;;;;6.90;4.68;;;11.80;90.40;;;;;;5012740;28;20371;-73
2023/04/14 01:01:14;;;;;;;8.40;4.50;;;11.90;90.40;;;;;;5024702;28;20048;-73
2023/04/14 01:03:39;;;;;;;7.55;4.93;;;11.90;90.40;;;;;;5012539;28;20041;-73
2023/04/14 01:06:05;;;;;;;6.88;4.80;;;11.80;90.40;;;;;;5015110;28;20022;-73
2023/04/14 01:08:31;;;;;;;7.90;5.03;;;11.80;90.40;;;;;;5019603;28;20088;-73
2023/04/14 01:11:30;;;;;;;6.88;4.78;;;11.80;90.40;;;;;;5019175;28;20053;-73
2023/04/14 01:14:33;;;;;;;6.85;4.93;;;11.80;90.50;;;;;;5027402;28;20034;-74
2023/04/14 01:17:19;;;;;;;7.68;4.95;;;11.80;90.50;;;;;;5018529;28;20029;-73
2023/04/14 01:20:07;;;;;;;8.25;4.30;;;11.80;90.50;;;;;;5011411;28;20045;-73
2023/04/14 01:22:37;;;;;;;6.80;3.95;;;11.80;90.60;;;;;;5012118;28;20053;-73
2023/04/14 01:25:21;;;;;;;5.75;4.28;;;11.80;90.60;;;;;;5018439;28;20044;-73
2023/04/14 01:28:03;;;;;;;6.47;4.22;;;11.70;90.60;;;;;;5020899;28;20041;-73
2023/04/14 01:30:32;;;;;;;5.25;3.78;;;11.70;90.60;;;;;;5011314;28;20049;-74
2023/04/14 01:33:03;;;;;;;5.07;3.72;;;11.70;90.70;;;;;;5026468;28;20036;-74
2023/04/14 01:35:38;;;;;;;7.88;4.22;;;11.70;90.70;;;;;;5012326;28;20033;-73
2023/04/14 01:38:09;;;;;;;5.68;3.60;;;11.70;90.70;;;;;;5019444;28;20048;-74
2023/04/14 01:40:37;;;;;;;6.00;3.70;;;11.70;90.80;;;;;;5024899;28;20022;-74
2023/04/14 01:43:09;;;;;;;5.93;4.10;;;11.70;90.80;;;;;;5023591;28;20061;-74
2023/04/14 01:45:43;;;;;;;6.03;3.78;;;11.70;90.80;;;;;;5018236;28;20058;-74
2023/04/14 01:48:09;;;;;;;7.90;4.25;;;11.60;90.90;;;;;;5026260;28;20060;-74
2023/04/14 01:50:36;;;;;;;5.20;4.07;;;11.60;90.90;;;;;;5015778;28;20033;-74
2023/04/14 01:53:05;;;;;;;6.45;4.13;;;11.60;91.00;;;;;;5014080;28;20026;-74
2023/04/14 01:55:33;;;;;;;6.03;4.30;;;11.50;91.00;;;;;;5022440;28;20069;-75
2023/04/14 01:58:00;;;;;;;8.48;4.93;;;11.50;91.10;;;;;;5014448;28;20029;-75
2023/04/14 02:00:26;;;;;;;7.80;4.47;;;11.40;91.20;;;;;;5014815;28;20121;-74
2023/04/14 02:02:53;;;;;;;6.30;4.55;;;11.30;91.30;;;;;;5020706;28;20037;-74
2023/04/14 02:05:21;;;;;;;10.75;5.65;;;11.30;91.40;;;;;;5015190;28;20021;-75
2023/04/14 02:07:48;;;;;;;12.40;4.80;;;11.30;91.40;;;;;;5018327;28;20037;-74
2023/04/14 02:10:20;;;;;;;6.30;4.55;;;11.30;91.50;;;;;;5014589;28;20025;-74
2023/04/14 02:12:49;;;;;;;7.90;5.32;;;11.30;91.50;;;;;;5026496;28;20025;-74
2023/04/14 02:15:17;;;;;;;6.72;4.78;;;11.30;91.50;;;;;;5034795;28;20029;-74
2023/04/14 02:17:46;;;;;;;6.88;4.40;;;11.30;91.60;;;;;;5030320;28;20049;-74
2023/04/14 02:20:13;;;;;;;8.88;4.35;;;11.30;91.60;;;;;;5030003;28;20026;-74
2023/04/14 02:22:39;;;;;;;9.07;4.95;;;11.30;91.70;;;;;;5028931;28;20033;-74
2023/04/14 02:25:05;;;;;;;6.78;4.05;;;11.20;91.70;;;;;;5022637;28;20029;-74
2023/04/14 02:27:48;;;;;;;8.60;4.90;;;11.20;91.70;;;;;;5022469;28;20359;-74
2023/04/14 02:30:19;;;;;;;11.10;4.53;;;11.20;91.80;;;;;;5018195;28;20368;-73
2023/04/14 02:32:51;;;;;;;7.15;4.15;;;11.30;92.00;;;;;;5027565;28;20037;-74
2023/04/14 02:35:25;;;;;;;5.25;3.90;;;11.20;91.80;;;;;;5015601;28;20030;-74
2023/04/14 02:37:55;;;;;;;6.30;3.97;;;11.30;91.80;;;;;;5014617;28;20057;-74
2023/04/14 02:40:30;;;;;;;5.97;3.40;;;11.30;91.80;;;;;;5014691;28;20030;-74
2023/04/14 02:43:03;;;;;;;4.40;3.30;;;11.30;91.80;;;;;;5013940;28;20038;-74
2023/04/14 02:45:31;;;;;;;4.82;3.50;;;11.30;91.80;;;;;;5023094;28;20026;-74
2023/04/14 02:48:13;;;;;;;4.82;3.58;;;11.30;92.00;;;;;;5021729;28;20038;-74
2023/04/14 02:50:44;;;;;;;4.97;3.65;;;11.20;91.90;;;;;;5015090;28;20119;-74
2023/04/14 02:53:11;;;;;;;6.63;4.00;;;11.30;91.90;;;;;;5014988;28;20022;-74
2023/04/14 02:55:37;;;;;;;6.75;3.88;;;11.20;91.90;;;;;;5026987;28;20053;-74
2023/04/14 02:58:04;;;;;;;6.90;4.13;;;11.30;92.00;;;;;;5026496;28;20052;-74
2023/04/14 03:00:31;;;;;;;6.28;3.80;;;11.30;92.00;;;;;;5013663;28;20117;-74
2023/04/14 03:02:59;;;;;;;6.68;3.58;;;11.30;92.10;;;;;;5014266;28;20057;-74
2023/04/14 03:05:26;;;;;;;7.30;4.18;;;11.30;92.10;;;;;;5013564;28;20030;-73
2023/04/14 03:07:54;;;;;;;8.15;3.92;;;11.20;92.10;;;;;;5015691;28;20039;-73
2023/04/14 03:10:21;;;;;;;7.70;4.13;;;11.30;92.30;;;;;;5028609;28;20026;-73
2023/04/14 03:12:49;;;;;;;8.13;4.00;;;11.20;92.40;;;;;;5016440;28;20090;-73
2023/04/14 03:15:16;;;;;;;7.47;3.50;;;11.20;92.70;;;;;;5024310;28;20021;-73
2023/04/14 03:17:43;;;;;;;5.93;3.75;;;11.20;92.60;;;;;;5029152;28;20045;-73
2023/04/14 03:20:11;;;;;;;5.53;3.40;;;11.20;92.80;;;;;;5012724;28;20168;-74
2023/04/14 03:22:40;;;;;;;4.82;3.58;;;11.20;92.90;;;;;;5013422;28;20099;-73
2023/04/14 03:25:08;;;;;;;5.72;3.92;;;11.20;92.90;;;;;;5012841;28;20045;-73
2023/04/14 03:27:35;;;;;;;4.38;3.47;;;11.20;93.10;;;;;;5023198;28;20351;-73
2023/04/14 03:30:04;;;;;;;5.97;3.65;;;11.20;93.20;;;;;;5031626;28;20037;-73
2023/04/14 03:32:40;;;;;;;5.65;4.03;;;11.20;93.20;;;;;;5017250;28;20061;-74
2023/04/14 03:35:06;;;;;;;5.43;4.20;;;11.20;93.40;;;;;;5013507;28;20032;-72
2023/04/14 03:37:36;;;;;;;6.95;4.43;;;11.20;93.50;;;;;;5018964;28;20160;-74
2023/04/14 03:40:05;;;;;;;8.18;4.28;;;11.20;93.60;;;;;;5023957;28;20030;-74
2023/04/14 03:42:32;;;;;;;5.13;3.50;;;11.20;93.70;;;;;;5016698;28;20036;-73
2023/04/14 03:45:00;;;;;;;8.25;5.00;;;11.10;93.80;;;;;;5022170;28;20029;-73
2023/04/14 03:47:29;;;;;;;6.30;3.88;;;11.10;93.90;;;;;;5014593;28;20029;-72
2023/04/14 03:49:58;;;;;;;7.35;4.15;;;11.10;94.00;;;;;;5018566;28;20025;-72
2023/04/14 03:52:25;;;;;;;6.57;4.30;;;11.10;94.10;;;;;;5013438;28;20034;-73
2023/04/14 03:54:55;;;;;;;6.63;4.57;;;11.10;94.30;;;;;;5012844;28;20560;-73
2023/04/14 03:57:22;;;;;;;9.93;4.25;;;11.10;94.30;;;;;;5012939;28;20041;-73
2023/04/14 03:59:49;;;;;;;6.03;3.92;;;11.10;94.30;;;;;;5012621;28;20512;-73
2023/04/14 04:02:17;;;;;;;6.97;4.18;;;11.10;94.30;;;;;;5013853;28;20038;-73
2023/04/14 04:04:43;;;;;;;5.43;3.80;;;11.10;94.30;;;;;;5013593;28;20498;-73
2023/04/14 04:07:12;;;;;;;7.07;4.43;;;11.10;94.30;;;;;;5013398;28;20030;-73
2023/04/14 04:09:40;;;;;;;5.80;3.97;;;11.10;94.30;;;;;;5026518;28;20051;-73
2023/04/14 04:12:08;;;;;;;7.18;3.80;;;11.10;94.30;;;;;;5013533;28;20117;-73
2023/04/14 04:14:38;;;;;;;4.75;3.22;;;11.10;94.30;;;;;;5013010;28;20478;-73
2023/04/14 04:17:07;;;;;;;7.60;3.70;;;11.10;94.20;;;;;;5014027;28;20045;-73
2023/04/14 04:19:34;;;;;;;5.57;3.42;;;11.00;94.20;;;;;;5023808;28;20120;-73
2023/04/14 04:22:01;;;;;;;5.60;3.40;;;11.00;94.20;;;;;;5015451;28;20044;-74
2023/04/14 04:24:30;;;;;;;6.55;3.80;;;11.00;94.20;;;;;;5015522;28;20022;-75
2023/04/14 04:26:56;;;;;;;7.38;3.50;;;11.10;94.30;;;;;;5013041;28;20385;-74
2023/04/14 04:29:23;;;;;;;6.25;3.75;;;11.00;94.20;;;;;;5012076;28;20026;-75
2023/04/14 04:31:49;;;;;;;7.65;4.88;;;11.00;94.20;;;;;;5026535;28;20479;-75
2023/04/14 04:34:16;;;;;;;6.50;3.70;;;11.00;94.30;;;;;;5013738;28;20100;-74
2023/04/14 04:36:43;;;;;;;5.63;3.60;;;11.00;94.30;;;;;;5011849;28;20493;-74
2023/04/14 04:39:09;;;;;;;5.45;3.40;;;11.00;94.30;;;;;;5028384;28;20041;-74
2023/04/14 04:41:34;;;;;;;7.10;3.60;;;11.10;94.30;;;;;;5012076;28;20030;-74
2023/04/14 04:44:00;;;;;;;5.60;3.42;;;11.00;94.40;;;;;;5011803;28;20041;-75
2023/04/14 04:46:47;;;;;;;5.28;3.33;;;11.10;94.40;;;;;;5012982;28;20049;-73
2023/04/14 04:49:13;;;;;;;6.88;3.35;;;11.10;94.40;;;;;;5025387;28;20026;-73
2023/04/14 04:51:38;;;;;;;4.38;2.95;;;11.10;94.40;;;;;;5021926;28;20034;-73
2023/04/14 04:54:05;;;;;;;7.43;3.60;;;11.10;94.30;;;;;;5019870;28;20030;-73
2023/04/14 04:56:31;;;;;;;4.93;3.17;;;11.10;94.40;;;;;;5012240;28;20037;-73
2023/04/14 04:58:57;;;;;;;6.65;3.13;;;11.10;94.40;;;;;;5011640;28;20042;-73
2023/04/14 05:01:23;;;;;;;5.22;3.13;;;11.20;94.40;;;;;;5011895;28;20046;-73
2023/04/14 05:03:49;;;;;;;11.20;3.70;;;11.10;94.40;;;;;;5014226;28;20038;-73
2023/04/14 05:06:15;;;;;;;7.10;3.53;;;11.20;94.40;;;;;;5011905;28;20557;-73
2023/04/14 05:08:41;;;;;;;6.28;3.63;;;11.20;94.40;;;;;;5019501;28;20397;-73
2023/04/14 05:11:07;;;;;;;6.53;3.20;;;11.20;94.40;;;;;;5020377;28;20036;-73
2023/04/14 05:13:33;;;;;;;6.07;3.85;;;11.20;94.40;;;;;;5013163;28;20030;-73
2023/04/14 05:16:06;;;;;;;7.78;4.13;;;11.20;94.40;;;;;;5010525;28;20037;-73
2023/04/14 05:18:33;;;;;;;7.00;4.75;;;11.20;94.40;;;;;;5027144;28;20041;-74
2023/04/14 05:21:06;;;;;;;10.90;7.00;;;11.20;94.50;;;;;;5030125;28;20106;-74
2023/04/14 05:23:34;;;;;;;8.05;5.30;;;11.20;94.50;;;;;;5011777;28;20045;-73
2023/04/14 05:25:59;;;;;;;8.98;4.90;;;11.30;94.50;;;;;;5011190;28;20088;-72
2023/04/14 05:28:25;;;;;;;7.97;4.32;;;11.30;94.60;;;;;;5034533;28;20604;-72
2023/04/14 05:30:51;;;;;;;5.63;3.65;;;11.30;94.80;;;;;;5029400;28;20029;-72
2023/04/14 05:33:18;;;;;;;5.82;4.05;;;11.30;94.50;;;;;;5029796;28;20040;-73
2023/04/14 05:35:44;;;;;;;5.72;3.38;;;11.30;94.50;;;;;;5034245;28;20032;-73
2023/04/14 05:38:11;;;;;;;5.85;3.42;;;11.40;94.60;;;;;;5031680;28;20048;-72
2023/04/14 05:40:36;;;;;;;6.13;3.50;;;11.40;94.60;;;;;;5019363;28;20113;-73
2023/04/14 05:43:02;;;;;;;5.80;3.80;;;11.40;94.60;;;;;;5016843;28;20465;-73
2023/04/14 05:45:28;;;;;;;5.13;3.92;;;11.30;94.50;;;;;;5034105;28;20505;-73
2023/04/14 05:47:54;;;;;;;5.65;3.47;;;11.30;94.60;;;;;;5021658;28;20149;-73
2023/04/14 05:50:21;;;;;;;6.32;3.88;;;11.30;94.70;;;;;;5020996;28;20259;-73
2023/04/14 05:52:50;;;;;;;5.20;3.85;;;11.30;94.80;;;;;;5019755;28;20038;-73
2023/04/14 05:55:16;;;;;;;5.55;3.97;;;11.30;94.80;;;;;;5015609;28;20022;-73
2023/04/14 05:57:42;;;;;;;6.95;4.82;;;11.30;94.90;;;;;;5026813;28;20041;-74
2023/04/14 06:00:09;;;;;;;7.22;4.25;;;11.40;95.10;;;;;;5031586;28;20053;-74
2023/04/14 06:02:35;;;;;;;7.32;4.03;;;11.30;95.10;;;;;;5015749;28;20513;-74
2023/04/14 06:05:01;;;;;;;7.60;3.95;;;11.30;95.20;;;;;;5018181;28;20354;-74
2023/04/14 06:07:27;;;;;;;5.82;4.20;;;11.30;95.30;;;;;;5015322;28;20500;-74
2023/04/14 06:09:53;;;;;;;6.47;4.47;;;11.30;95.40;;;;;;5030325;28;20034;-74
2023/04/14 06:12:19;;;;;;;7.57;4.72;;;11.30;95.40;;;;;;5024038;28;20116;-74
2023/04/14 06:14:45;;;;;;;6.72;4.85;;;11.30;95.50;;;;;;5026392;28;20068;-74
2023/04/14 06:17:10;;;;;;;6.75;4.57;;;11.30;95.50;;;;;;5024384;28;20054;-74
2023/04/14 06:19:36;;;;;;;8.73;4.50;;;11.30;95.50;;;;;;5020215;28;20030;-74
2023/04/14 06:22:02;;;;;;;7.45;4.72;;;11.30;95.60;;;;;;5015278;28;20036;-75
2023/04/14 06:24:27;;;;;;;6.20;4.20;;;11.30;95.60;;;;;;5013731;28;20025;-74
2023/04/14 06:26:53;;;;;;;6.80;4.22;;;11.40;95.60;;;;;;5014485;28;20034;-75
2023/04/14 06:29:18;;;;;;;8.15;4.70;;;11.30;95.60;;;;;;5016496;28;20030;-75
2023/04/14 06:31:44;;;;;;;6.35;4.57;;;11.30;95.70;;;;;;5032171;28;20033;-75
2023/04/14 06:34:10;;;;;;;8.77;4.85;;;11.30;95.70;;;;;;5019282;28;20025;-75
2023/04/14 06:36:36;;;;;;;7.60;4.78;;;11.20;95.90;;;;;;5013685;28;20191;-74
2023/04/14 06:39:03;;;;;;;6.20;4.07;;;11.30;96.00;;;;;;5019020;28;20469;-72
2023/04/14 06:41:29;;;;;;;5.63;4.38;;;11.30;96.00;;;;;;5019219;28;20353;-73
2023/04/14 06:43:55;;;;;;;6.25;4.35;;;11.20;96.00;;;;;;5024542;28;20025;-74
2023/04/14 06:46:21;;;;;;;10.00;4.82;;;11.20;96.10;;;;;;5015949;28;20017;-73
2023/04/14 06:48:46;;;;;;;9.45;4.90;;;11.20;96.00;;;;;;5020445;28;20033;-73
2023/04/14 06:51:12;;;;;;;6.57;4.03;;;11.20;96.10;;;;;;5015836;28;20663;-73
2023/04/14 06:53:38;;;;;;;6.72;4.97;;;11.20;96.10;;;;;;5018940;28;20025;-73
2023/04/14 06:56:05;;;;;;;7.90;5.07;;;11.20;96.10;;;;;;5025027;28;20021;-73
2023/04/14 06:58:31;;;;;;;8.30;5.50;;;11.20;96.20;;;;;;5031632;28;20038;-73
2023/04/14 07:00:58;;;;;;;10.73;6.30;;;11.20;96.60;;;;;;5017726;28;20040;-72
2023/04/14 07:03:25;;;;;;;6.45;5.75;;;11.20;96.50;;;;;;5019417;28;20057;-73
2023/04/14 07:05:51;;;;;;;11.73;5.55;;;11.20;96.50;;;;;;5017105;28;20032;-73
2023/04/14 07:08:18;;;;;;;8.63;5.55;;;11.30;96.60;;;;;;5014724;28;20077;-72
2023/04/14 07:10:44;;;;;;;8.00;5.53;;;11.30;96.60;;;;;;5012635;28;20033;-71
2023/04/14 07:13:10;;;;;;;11.40;6.25;;;11.40;96.70;;;;;;5028685;28;20025;-73
2023/04/14 07:15:36;;;;;;;8.45;5.93;;;11.40;96.70;;;;;;5012848;28;20032;-71
2023/04/14 07:18:02;;;;;;;8.02;5.45;;;11.40;96.80;;;;;;5013787;28;20134;-71
2023/04/14 07:20:28;;;;;;;10.50;5.70;;;11.40;96.70;;;;;;5024251;28;20172;-72
2023/04/14 07:22:54;;;;;;;8.48;5.97;;;11.40;96.90;;;;;;5013946;28;20045;-71
2023/04/14 07:25:20;;;;;;;8.00;5.78;;;11.40;96.90;;;;;;5018453;28;20022;-71
2023/04/14 07:27:46;;;;;;;8.10;5.60;;;11.40;96.90;;;;;;5018531;28;20033;-71
2023/04/14 07:30:12;;;;;;;8.65;5.20;;;11.30;96.90;;;;;;5023201;28;20060;-71
2023/04/14 07:32:38;;;;;;;10.25;5.35;;;11.30;96.90;;;;;;5028068;28;20026;-71
2023/04/14 07:35:07;;;;;;;10.07;6.18;;;11.30;96.80;;;;;;5019472;28;20049;-71
2023/04/14 07:37:33;;;;;;;8.18;5.82;;;11.30;97.00;;;;;;5030209;28;20053;-71
2023/04/14 07:39:59;;;;;;;9.23;5.80;;;11.30;97.10;;;;;;5026379;28;20090;-71
2023/04/14 07:42:25;;;;;;;8.73;6.18;;;11.20;97.20;;;;;;5015168;28;20088;-71
2023/04/14 07:44:51;;;;;;;8.55;5.30;;;11.20;97.20;;;;;;5024030;28;20029;-71
2023/04/14 07:47:16;;;;;;;7.55;5.60;;;11.20;97.30;;;;;;5024060;28;20040;-71
2023/04/14 07:49:42;;;;;;;6.30;4.97;;;11.20;97.40;;;;;;5016328;28;20026;-71
2023/04/14 07:52:09;;;;;;;12.18;5.88;;;11.20;97.60;;;;;;5023614;28;20037;-71
2023/04/14 07:54:35;;;;;;;6.88;5.70;;;11.10;97.50;;;;;;5023215;28;20036;-71
2023/04/14 07:57:01;;;;;;;8.70;6.18;;;11.10;97.80;;;;;;5020309;28;20030;-71
2023/04/14 07:59:26;;;;;;;8.10;5.32;;;11.00;97.90;;;;;;5025033;28;20375;-71
2023/04/14 08:01:52;;;;;;;7.13;4.72;;;11.00;98.00;;;;;;5023949;28;20112;-71
2023/04/14 08:04:18;;;;;;;6.53;4.95;;;11.00;98.00;;;;;;5023350;28;20040;-71
2023/04/14 08:06:43;;;;;;;7.68;5.28;;;11.00;97.90;;;;;;5025358;28;20448;-71
2023/04/14 08:09:09;;;;;;;7.25;4.85;;;11.00;97.90;;;;;;5015597;28;20030;-71
2023/04/14 08:11:35;;;;;;;8.27;4.43;;;10.90;97.90;;;;;;5018629;28;20025;-71
2023/04/14 08:14:00;;;;;;;7.60;4.72;;;10.80;97.90;;;;;;5031745;28;20108;-72
2023/04/14 08:16:26;;;;;;;8.27;4.60;;;10.80;98.20;;;;;;5026816;28;20038;-72
2023/04/14 08:18:52;;;;;;;11.40;5.97;;;10.70;98.50;;;;;;5012771;28;20038;-72
2023/04/14 08:21:18;;;;;;;7.22;4.93;;;10.70;98.40;;;;;;5014788;28;20428;-71
2023/04/14 08:23:44;;;;;;;7.75;4.88;;;10.60;98.70;;;;;;5020532;28;20017;-71
2023/04/14 08:26:10;;;;;;;10.77;5.20;;;10.60;98.80;;;;;;5020984;28;20029;-71
2023/04/14 08:28:36;;;;;;;7.07;4.97;;;10.60;98.90;;;;;;5011285;28;20179;-72
2023/04/14 08:31:01;;;;;;;8.38;4.72;;;10.70;99.00;;;;;;5016685;28;20192;-71
2023/04/14 08:33:27;;;;;;;8.52;5.25;;;10.70;99.40;;;;;;5013324;28;20054;-73
2023/04/14 08:35:52;;;;;;;6.38;4.68;;;10.70;99.30;;;;;;5011866;28;20531;-75
2023/04/14 08:38:19;;;;;;;6.47;4.20;;;10.80;99.30;;;;;;5010169;28;20064;-74
2023/04/14 08:40:53;;;;;;;6.75;4.15;;;10.80;99.40;;;;;;5024669;28;20026;-74
2023/04/14 08:43:18;;;;;;;5.35;3.80;;;10.90;99.40;;;;;;5015168;28;20377;-74
2023/04/14 08:45:45;;;;;;;5.00;4.13;;;10.90;99.40;;;;;;5026239;28;20052;-74
2023/04/14 08:48:13;;;;;;;6.57;3.88;;;10.80;99.40;;;;;;5042570;28;20043;-74
2023/04/14 08:50:55;;;;;;;7.90;4.80;;;10.90;99.40;;;;;;5018426;28;20073;-75
2023/04/14 08:53:23;;;;;;;5.97;4.15;;;10.90;99.50;;;;;;5019686;28;20036;-75
2023/04/14 08:55:50;;;;;;;7.07;4.30;;;11.00;99.40;;;;;;5021205;28;20038;-75
2023/04/14 08:58:16;;;;;;;9.65;5.20;;;11.00;99.30;;;;;;5042894;28;20038;-76
2023/04/14 09:00:41;;;;;;;5.55;3.42;;;11.00;99.40;;;;;;5012436;28;20055;-74
2023/04/14 09:03:10;;;;;;;6.22;4.65;;;11.00;99.40;;;;;;5012163;28;20769;-76
2023/04/14 09:05:37;;;;;;;6.43;3.58;;;11.00;99.30;;;;;;5025655;28;20660;-75
2023/04/14 09:08:03;;;;;;;6.25;4.07;;;11.00;99.70;;;;;;5020416;28;20034;-74
2023/04/14 09:10:29;;;;;;;7.47;4.70;;;11.10;99.50;;;;;;5016135;28;20022;-75
2023/04/14 09:12:56;;;;;;;8.27;5.07;;;11.20;99.60;;;;;;5014049;28;20109;-74
2023/04/14 09:15:24;;;;;;;7.20;4.60;;;11.10;99.50;;;;;;5020194;28;20057;-75
2023/04/14 09:17:50;;;;;;;6.55;4.50;;;11.10;99.70;;;;;;5021032;28;20073;-75
2023/04/14 09:20:15;;;;;;;6.30;4.53;;;11.10;99.70;;;;;;5023690;28;20481;-75
2023/04/14 09:22:41;;;;;;;6.20;5.07;;;11.00;99.80;;;;;;5028135;28;20046;-74
2023/04/14 09:25:08;;;;;;;6.07;4.57;;;11.00;99.90;;;;;;5013683;28;20061;-74
2023/04/14 09:27:34;;;;;;;6.40;4.65;;;11.00;99.90;;;;;;5028003;28;20029;-74
2023/04/14 09:30:01;;;;;;;6.85;4.45;;;10.90;99.90;;;;;;5024634;28;20022;-74
2023/04/14 09:32:27;;;;;;;5.97;4.80;;;11.00;99.90;;;;;;5024260;28;20033;-74
2023/04/14 09:34:53;;;;;;;8.60;5.53;;;10.90;99.90;;;;;;5014367;28;20569;-75
2023/04/14 09:37:19;;;;;;;6.30;4.55;;;10.90;99.90;;;;;;5009734;28;20030;-74
2023/04/14 09:39:50;;;;;;;8.65;5.18;;;10.90;99.90;;;;;;5024192;28;20038;-75
2023/04/14 09:42:16;;;;;;;7.50;5.65;;;10.90;99.90;;;;;;5020829;28;20033;-75
2023/04/14 09:45:00;;;;;;;7.72;5.95;;;11.00;99.90;;;;;;5016927;28;20084;-74
2023/04/14 09:47:25;;;;;;;6.32;4.70;;;11.00;99.90;;;;;;5033817;28;20068;-75
2023/04/14 09:49:56;;;;;;;9.98;6.00;;;11.00;99.90;;;;;;5011379;28;20061;-75
2023/04/14 09:52:34;;;;;;;8.63;5.72;;;10.90;99.90;;;;;;5014485;28;20528;-75
2023/04/14 09:55:00;;;;;;;7.97;5.65;;;10.80;99.90;;;;;;5025417;28;20033;-73
2023/04/14 09:57:27;;;;;;;8.18;5.88;;;10.80;99.90;;;;;;5012229;28;20069;-72
2023/04/14 09:59:53;;;;;;;8.20;5.75;;;10.80;99.90;;;;;;5024215;28;20424;-73
2023/04/14 10:02:19;;;;;;;9.38;5.72;;;10.80;99.90;;;;;;5022838;28;20026;-75
2023/04/14 10:04:44;;;;;;;8.70;6.05;;;10.80;99.90;;;;;;5027550;28;20033;-74
2023/04/14 10:07:11;;;;;;;9.52;6.18;;;10.80;99.90;;;;;;5020104;28;20041;-75
2023/04/14 10:09:37;;;;;;;9.27;5.90;;;10.80;99.90;;;;;;5019241;28;20043;-74
2023/04/14 10:12:14;;;;;;;9.15;6.00;;;10.80;99.90;;;;;;5018055;28;20052;-73
2023/04/14 10:14:41;;;;;;;7.88;6.22;;;10.80;99.90;;;;;;5016879;28;20506;-73
2023/04/14 10:17:07;;;;;;;8.13;5.80;;;10.80;99.90;;;;;;5026230;28;20033;-74
2023/04/14 10:19:35;;;;;;;9.18;6.10;;;10.80;99.90;;;;;;5012064;28;20042;-74
2023/04/14 10:22:01;;;;;;;8.55;6.00;;;10.80;99.90;;;;;;5024459;28;20025;-73
2023/04/14 10:24:27;;;;;;;10.15;6.28;;;10.70;99.90;;;;;;5030854;28;20031;-73
2023/04/14 10:26:54;;;;;;;8.93;6.55;;;10.70;99.90;;;;;;5033141;28;20420;-73
2023/04/14 10:29:20;;;;;;;9.43;6.90;;;10.80;99.90;;;;;;5023177;28;20038;-73
2023/04/14 10:31:52;;;;;;;12.60;6.68;;;10.80;99.90;;;;;;5028289;28;20665;-73
2023/04/14 10:34:19;;;;;;;8.02;4.75;;;10.80;99.90;;;;;;5032114;28;20087;-73
2023/04/14 10:36:45;;;;;;;7.28;5.47;;;10.70;99.90;;;;;;5026176;28;20129;-73
2023/04/14 10:39:11;;;;;;;8.38;5.72;;;10.70;99.90;;;;;;5032529;28;20037;-73
2023/04/14 10:41:47;;;;;;;8.35;5.55;;;10.60;99.90;;;;;;5016502;28;20133;-73
2023/04/14 10:44:22;;;;;;;10.55;5.80;;;10.70;99.90;;;;;;5031922;28;20026;-73
2023/04/14 10:46:48;;;;;;;7.55;6.07;;;10.70;99.90;;;;;;5032595;28;20028;-73
2023/04/14 10:49:14;;;;;;;8.82;5.95;;;10.70;99.90;;;;;;5014482;28;20115;-73
2023/04/14 10:51:40;;;;;;;9.30;6.05;;;10.70;99.90;;;;;;5039058;28;20536;-72
2023/04/14 10:54:18;;;;;;;8.65;5.53;;;10.70;99.90;;;;;;5030601;28;20179;-72
2023/04/14 10:57:13;;;;;;;7.35;5.18;;;10.80;99.90;;;;;;5029286;28;20029;-73
2023/04/14 10:59:40;;;;;;;12.18;5.93;;;10.70;99.90;;;;;;5014842;28;20057;-73
2023/04/14 11:02:27;;;;;;;9.98;5.50;;;10.70;99.90;;;;;;5027540;28;20038;-74
2023/04/14 11:04:59;;;;;;;7.60;5.03;;;10.60;99.90;;;;;;5023948;28;20033;-74
2023/04/14 11:07:27;;;;;;;8.02;4.70;;;10.60;99.90;;;;;;5023665;28;20519;-73
2023/04/14 11:10:15;;;;;;;6.20;5.22;;;10.50;99.90;;;;;;5014898;28;20042;-74
2023/04/14 11:12:42;;;;;;;6.40;4.32;;;10.50;99.90;;;;;;5015154;28;20029;-74
2023/04/14 11:15:08;;;;;;;8.07;5.20;;;10.40;99.90;;;;;;5021898;28;20029;-74
2023/04/14 11:17:44;;;;;;;7.15;4.97;;;10.50;99.90;;;;;;5025956;28;20037;-74
2023/04/14 11:20:21;;;;;;;7.93;5.10;;;10.40;99.90;;;;;;5023685;28;20092;-74
2023/04/14 11:22:48;;;;;;;6.65;4.75;;;10.40;99.90;;;;;;5030227;28;20358;-74
2023/04/14 11:25:15;;;;;;;8.02;5.43;;;10.30;99.90;;;;;;5016307;28;20057;-73
2023/04/14 11:27:42;;;;;;;8.65;5.55;;;10.30;99.90;;;;;;5013809;28;20037;-75
2023/04/14 11:30:15;;;;;;;9.13;5.03;;;10.30;99.90;;;;;;5028469;28;20028;-75
2023/04/14 11:32:53;;;;;;;8.20;5.70;;;10.30;99.90;;;;;;5029300;28;20389;-74
2023/04/14 11:35:21;;;;;;;9.05;5.82;;;10.30;99.90;;;;;;5023270;28;20025;-74
2023/04/14 11:37:47;;;;;;;8.13;6.15;;;10.30;99.90;;;;;;5016678;28;20449;-74
2023/04/14 11:40:14;;;;;;;8.55;5.40;;;10.30;99.90;;;;;;5014138;28;20026;-75
2023/04/14 11:42:45;;;;;;;7.70;5.55;;;10.30;99.90;;;;;;5014071;28;20029;-75
2023/04/14 11:45:14;;;;;;;8.02;5.38;;;10.30;99.90;;;;;;5024522;28;20036;-74
2023/04/14 11:48:00;;;;;;;7.75;5.93;;;10.30;99.90;;;;;;5032899;28;20024;-74
2023/04/14 11:50:29;;;;;;;7.15;5.75;;;10.30;99.90;;;;;;5025136;28;20110;-74
2023/04/14 11:52:58;;;;;;;9.85;6.00;;;10.30;99.90;;;;;;5021214;28;20087;-74
2023/04/14 11:55:25;;;;;;;8.95;6.30;;;10.40;99.90;;;;;;5023635;28;20072;-74
2023/04/14 11:57:51;;;;;;;8.57;6.07;;;10.40;99.90;;;;;;5015931;28;20037;-74
2023/04/14 12:00:17;;;;;;;8.57;6.20;;;10.40;99.90;;;;;;5031265;28;20049;-74
2023/04/14 12:02:44;;;;;;;8.68;5.75;;;10.40;99.90;;;;;;5027466;28;20018;-74
2023/04/14 12:05:29;;;;;;;7.18;5.32;;;10.40;99.90;;;;;;5030454;28;20392;-74
2023/04/14 12:08:02;;;;;;;;;;;10.40;99.90;;;;;;5017276;28;20030;-74
2023/04/14 12:10:28;;;;;;;8.45;5.60;;;10.50;99.90;;;;;;5016191;28;19910;-74
2023/04/14 12:13:01;;;;;;;8.38;4.93;;;10.40;99.90;;;;;;5015685;28;20056;-73
2023/04/14 12:15:32;;;;;;;8.25;4.88;;;10.40;99.90;;;;;;5022877;28;20033;-74
2023/04/14 12:17:58;;;;;;;7.32;4.75;;;10.40;99.90;;;;;;5019978;28;20041;-74
2023/04/14 12:20:26;;;;;;;6.35;5.05;;;10.40;99.90;;;;;;5023772;28;20474;-75
2023/04/14 12:23:00;;;;;;;8.82;5.35;;;10.30;99.90;;;;;;5027068;28;20040;-73
2023/04/14 12:25:31;;;;;;;6.97;5.32;;;10.20;99.90;;;;;;5024174;28;20022;-73
2023/04/14 12:27:57;;;;;;;7.85;5.38;;;10.20;99.90;;;;;;5013495;28;20042;-73
2023/04/14 12:30:25;;;;;;;6.97;4.75;;;10.20;99.90;;;;;;5028206;28;20041;-73
2023/04/14 12:32:51;;;;;;;6.75;5.07;;;10.20;99.90;;;;;;5028059;28;20036;-75
2023/04/14 12:35:24;;;;;;;7.97;5.72;;;10.20;99.90;;;;;;5025736;28;20034;-74
2023/04/14 12:37:51;;;;;;;7.75;5.13;;;10.10;99.90;;;;;;5024114;28;20068;-73
2023/04/14 12:40:35;;;;;;;6.53;4.75;;;10.10;99.90;;;;;;5024412;28;20064;-74
2023/04/14 12:43:01;;;;;;;8.87;4.60;;;10.10;99.90;;;;;;5020641;28;20099;-73
2023/04/14 12:45:41;;;;;;;7.78;4.78;;;10.20;99.90;;;;;;5021102;28;20533;-74
2023/04/14 12:48:07;;;;;;;10.02;5.05;;;10.20;99.90;;;;;;5016128;28;20433;-74
2023/04/14 12:50:32;;;;;;;7.93;5.88;;;10.20;99.90;;;;;;5018197;28;20038;-73